PRIVATE WETTERSTATION BILLIGHEIM-ALLFELD                       ZURCK
Wetterdaten: Mittwoch, 12.01.2022
Datum Zeit Temp. A. Temp. A. min Temp. A. max Feuchte A. Luftdruck Regen Wind Richtung Richtung Sonnenschein ET Solar Taupunkt Windchill Windben Empfang
12.01.2022 00:00 0,7 C 0,7 C 0,8 C 81 % 1035,4 hPa 0,0 l/m 0,0 km/h (0 Bft) N 0 0 min 0,000 mm 0 W/m -2,2 C 0,7 C 0,0 km/h (0 Bft) 100 %
12.01.2022 00:10 0,6 C 0,6 C 0,7 C 81 % 1035,4 hPa 0,0 l/m 0,0 km/h (0 Bft) N 0 0 min 0,000 mm 0 W/m -2,3 C 0,6 C 0,0 km/h (0 Bft) 100 %
12.01.2022 00:20 0,4 C 0,4 C 0,6 C 83 % 1035,5 hPa 0,0 l/m 0,0 km/h (0 Bft) N 0 0 min 0,000 mm 0 W/m -2,1 C 0,4 C 0,0 km/h (0 Bft) 100 %
12.01.2022 00:30 0,3 C 0,3 C 0,4 C 84 % 1035,4 hPa 0,0 l/m 0,0 km/h (0 Bft) N 0 0 min 0,000 mm 0 W/m -2,1 C 0,3 C 0,0 km/h (0 Bft) 89 %
12.01.2022 00:40 0,2 C 0,2 C 0,3 C 84 % 1035,5 hPa 0,0 l/m 0,0 km/h (0 Bft) N 0 0 min 0,000 mm 0 W/m -2,2 C 0,2 C 0,0 km/h (0 Bft) 100 %
12.01.2022 00:50 0,2 C 0,1 C 0,2 C 85 % 1035,7 hPa 0,0 l/m 0,0 km/h (0 Bft) N 0 0 min 0,000 mm 0 W/m -2,0 C 0,2 C 0,0 km/h (0 Bft) 100 %
12.01.2022 01:00 0,1 C 0,1 C 0,2 C 86 % 1035,8 hPa 0,0 l/m 0,0 km/h (0 Bft) N 0 0 min 0,000 mm 0 W/m -2,0 C 0,1 C 0,0 km/h (0 Bft) 100 %
12.01.2022 01:10 -0,1 C -0,1 C 0,1 C 87 % 1035,8 hPa 0,0 l/m 0,0 km/h (0 Bft) N 0 0 min 0,000 mm 0 W/m -2,0 C -0,1 C 0,0 km/h (0 Bft) 100 %
12.01.2022 01:20 -0,1 C -0,1 C -0,1 C 86 % 1035,7 hPa 0,0 l/m 0,0 km/h (0 Bft) N 0 0 min 0,000 mm 0 W/m -2,2 C -0,1 C 0,0 km/h (0 Bft) 100 %
12.01.2022 01:30 0,1 C -0,1 C 0,1 C 85 % 1035,7 hPa 0,0 l/m 0,0 km/h (0 Bft) N 0 0 min 0,000 mm 0 W/m -2,1 C 0,1 C 0,0 km/h (0 Bft) 100 %
12.01.2022 01:40 0,1 C 0,0 C 0,1 C 84 % 1035,6 hPa 0,0 l/m 0,0 km/h (0 Bft) N 0 0 min 0,000 mm 0 W/m -2,3 C 0,1 C 0,0 km/h (0 Bft) 100 %
12.01.2022 01:50 0,1 C 0,1 C 0,1 C 83 % 1035,7 hPa 0,0 l/m 0,0 km/h (0 Bft) N 0 0 min 0,000 mm 0 W/m -2,4 C 0,1 C 0,0 km/h (0 Bft) 100 %
12.01.2022 02:00 0,0 C 0,0 C 0,1 C 83 % 1035,6 hPa 0,0 l/m 0,0 km/h (0 Bft) N 0 0 min 0,000 mm 0 W/m -2,5 C 0,0 C 0,0 km/h (0 Bft) 100 %
12.01.2022 02:10 -0,1 C -0,1 C 0,0 C 82 % 1035,7 hPa 0,0 l/m 0,0 km/h (0 Bft) N 0 0 min 0,000 mm 0 W/m -2,8 C -0,1 C 0,0 km/h (0 Bft) 100 %
12.01.2022 02:20 -0,2 C -0,2 C -0,1 C 83 % 1035,7 hPa 0,0 l/m 0,0 km/h (0 Bft) N 0 0 min 0,000 mm 0 W/m -2,7 C -0,2 C 0,0 km/h (0 Bft) 100 %
12.01.2022 02:30 -0,3 C -0,3 C -0,2 C 82 % 1035,7 hPa 0,0 l/m 0,0 km/h (0 Bft) N 0 0 min 0,000 mm 0 W/m -3,0 C -0,3 C 0,0 km/h (0 Bft) 100 %
12.01.2022 02:40 -0,4 C -0,4 C -0,3 C 83 % 1035,8 hPa 0,0 l/m 0,0 km/h (0 Bft) N 0 0 min 0,000 mm 0 W/m -2,9 C -0,4 C 0,0 km/h (0 Bft) 100 %
12.01.2022 02:50 -0,6 C -0,6 C -0,4 C 83 % 1035,9 hPa 0,0 l/m 0,0 km/h (0 Bft) N 0 0 min 0,000 mm 0 W/m -3,1 C -0,6 C 0,0 km/h (0 Bft) 100 %
12.01.2022 03:00 -0,8 C -0,8 C -0,6 C 84 % 1035,9 hPa 0,0 l/m 0,0 km/h (0 Bft) N 0 0 min 0,000 mm 0 W/m -3,2 C -0,8 C 0,0 km/h (0 Bft) 100 %
12.01.2022 03:10 -1,0 C -1,0 C -0,8 C 85 % 1035,9 hPa 0,0 l/m 0,0 km/h (0 Bft) N 0 0 min 0,000 mm 0 W/m -3,2 C -1,0 C 0,0 km/h (0 Bft) 100 %
12.01.2022 03:20 -0,9 C -1,0 C -0,9 C 85 % 1035,7 hPa 0,0 l/m 0,0 km/h (0 Bft) N 0 0 min 0,000 mm 0 W/m -3,1 C -0,9 C 0,0 km/h (0 Bft) 100 %
12.01.2022 03:30 -0,8 C -0,9 C -0,8 C 84 % 1035,7 hPa 0,0 l/m 0,0 km/h (0 Bft) N 0 0 min 0,000 mm 0 W/m -3,2 C -0,8 C 0,0 km/h (0 Bft) 100 %
12.01.2022 03:40 -0,7 C -0,8 C -0,7 C 83 % 1035,9 hPa 0,0 l/m 0,0 km/h (0 Bft) N 0 0 min 0,000 mm 0 W/m -3,2 C -0,7 C 0,0 km/h (0 Bft) 100 %
12.01.2022 03:50 -0,7 C -0,7 C -0,7 C 83 % 1035,8 hPa 0,0 l/m 0,0 km/h (0 Bft) N 0 0 min 0,000 mm 0 W/m -3,2 C -0,7 C 0,0 km/h (0 Bft) 100 %
12.01.2022 04:00 -0,7 C -0,7 C -0,6 C 83 % 1035,6 hPa 0,0 l/m 0,0 km/h (0 Bft) O-NO 67 0 min 0,000 mm 0 W/m -3,2 C -0,7 C 1,6 km/h (1 Bft) 100 %
12.01.2022 04:10 -0,7 C -0,7 C -0,7 C 82 % 1035,8 hPa 0,0 l/m 0,0 km/h (0 Bft) N 0 0 min 0,000 mm 0 W/m -3,4 C -0,7 C 0,0 km/h (0 Bft) 100 %
12.01.2022 04:20 -0,7 C -0,7 C -0,6 C 82 % 1035,8 hPa 0,0 l/m 0,0 km/h (0 Bft) N 0 0 min 0,000 mm 0 W/m -3,4 C -0,7 C 0,0 km/h (0 Bft) 100 %
12.01.2022 04:30 -0,9 C -0,9 C -0,7 C 84 % 1036,0 hPa 0,0 l/m 0,0 km/h (0 Bft) N 0 0 min 0,000 mm 0 W/m -3,3 C -0,9 C 0,0 km/h (0 Bft) 100 %
12.01.2022 04:40 -1,3 C -1,3 C -0,9 C 85 % 1035,9 hPa 0,0 l/m 0,0 km/h (0 Bft) N 0 0 min 0,000 mm 0 W/m -3,5 C -1,3 C 0,0 km/h (0 Bft) 100 %
12.01.2022 04:50 -1,6 C -1,6 C -1,3 C 86 % 1035,7 hPa 0,0 l/m 0,0 km/h (0 Bft) N 0 0 min 0,000 mm 0 W/m -3,6 C -1,6 C 0,0 km/h (0 Bft) 100 %
12.01.2022 05:00 -1,4 C -1,6 C -1,4 C 86 % 1035,7 hPa 0,0 l/m 0,0 km/h (0 Bft) N 0 0 min 0,000 mm 0 W/m -3,4 C -1,4 C 0,0 km/h (0 Bft) 100 %
12.01.2022 05:10 -1,4 C -1,4 C -1,4 C 85 % 1035,8 hPa 0,0 l/m 0,0 km/h (0 Bft) N 0 0 min 0,000 mm 0 W/m -3,6 C -1,4 C 0,0 km/h (0 Bft) 100 %
12.01.2022 05:20 -1,6 C -1,6 C -1,4 C 86 % 1035,8 hPa 0,0 l/m 0,0 km/h (0 Bft) N 0 0 min 0,000 mm 0 W/m -3,6 C -1,6 C 0,0 km/h (0 Bft) 100 %
12.01.2022 05:30 -1,9 C -1,9 C -1,6 C 87 % 1036,1 hPa 0,0 l/m 0,0 km/h (0 Bft) N 0 0 min 0,000 mm 0 W/m -3,8 C -1,9 C 0,0 km/h (0 Bft) 100 %
12.01.2022 05:40 -2,3 C -2,3 C -1,9 C 88 % 1036,3 hPa 0,0 l/m 0,0 km/h (0 Bft) N 0 0 min 0,000 mm 0 W/m -4,0 C -2,3 C 0,0 km/h (0 Bft) 100 %
12.01.2022 05:50 -2,4 C -2,4 C -2,3 C 89 % 1036,3 hPa 0,0 l/m 0,0 km/h (0 Bft) N 0 0 min 0,000 mm 0 W/m -4,0 C -2,4 C 0,0 km/h (0 Bft) 100 %
12.01.2022 06:00 -2,4 C -2,5 C -2,4 C 90 % 1036,5 hPa 0,0 l/m 0,0 km/h (0 Bft) O-NO 67 0 min 0,000 mm 0 W/m -3,8 C -2,4 C 3,2 km/h (1 Bft) 100 %
12.01.2022 06:10 -2,6 C -2,6 C -2,4 C 90 % 1036,7 hPa 0,0 l/m 0,0 km/h (0 Bft) N 0 0 min 0,000 mm 0 W/m -4,0 C -2,6 C 0,0 km/h (0 Bft) 99 %
12.01.2022 06:20 -2,8 C -2,8 C -2,7 C 90 % 1036,5 hPa 0,0 l/m 0,0 km/h (0 Bft) N 0 0 min 0,000 mm 0 W/m -4,2 C -2,8 C 0,0 km/h (0 Bft) 97 %
12.01.2022 06:30 -2,9 C -2,9 C -2,8 C 90 % 1036,6 hPa 0,0 l/m 0,0 km/h (0 Bft) N 0 0 min 0,000 mm 0 W/m -4,3 C -2,9 C 0,0 km/h (0 Bft) 98 %
12.01.2022 06:40 -2,9 C -2,9 C -2,8 C 91 % 1036,7 hPa 0,0 l/m 0,0 km/h (0 Bft) N 0 0 min 0,000 mm 0 W/m -4,2 C -2,9 C 0,0 km/h (0 Bft) 89 %
12.01.2022 06:50 -3,1 C -3,1 C -2,9 C 91 % 1036,8 hPa 0,0 l/m 0,0 km/h (0 Bft) N 0 0 min 0,000 mm 0 W/m -4,4 C -3,1 C 0,0 km/h (0 Bft) 97 %
12.01.2022 07:00 -3,2 C -3,2 C -3,1 C 91 % 1036,7 hPa 0,0 l/m 0,0 km/h (0 Bft) N 0 0 min 0,000 mm 0 W/m -4,5 C -3,2 C 0,0 km/h (0 Bft) 98 %
12.01.2022 07:10 -3,1 C -3,2 C -3,1 C 92 % 1036,7 hPa 0,0 l/m 0,0 km/h (0 Bft) N 0 0 min 0,000 mm 0 W/m -4,2 C -3,1 C 0,0 km/h (0 Bft) 98 %
12.01.2022 07:20 -3,1 C -3,2 C -3,1 C 92 % 1036,6 hPa 0,0 l/m 0,0 km/h (0 Bft) N 0 0 min 0,000 mm 0 W/m -4,2 C -3,1 C 0,0 km/h (0 Bft) 97 %
12.01.2022 07:30 -3,2 C -3,2 C -3,1 C 92 % 1036,6 hPa 0,0 l/m 0,0 km/h (0 Bft) N 0 0 min 0,000 mm 0 W/m -4,3 C -3,2 C 0,0 km/h (0 Bft) 98 %
12.01.2022 07:40 -3,3 C -3,3 C -3,2 C 92 % 1036,8 hPa 0,0 l/m 0,0 km/h (0 Bft) N 0 0 min 0,000 mm 0 W/m -4,4 C -3,3 C 0,0 km/h (0 Bft) 98 %
12.01.2022 07:50 -3,3 C -3,3 C -3,3 C 92 % 1036,9 hPa 0,0 l/m 0,0 km/h (0 Bft) N 0 0 min 0,000 mm 0 W/m -4,4 C -3,3 C 0,0 km/h (0 Bft) 88 %
12.01.2022 08:00 -3,3 C -3,3 C -3,3 C 92 % 1036,9 hPa 0,0 l/m 0,0 km/h (0 Bft) N 0 0 min 0,000 mm 0 W/m -4,4 C -3,3 C 0,0 km/h (0 Bft) 97 %
12.01.2022 08:10 -3,3 C -3,3 C -3,3 C 92 % 1037,3 hPa 0,0 l/m 0,0 km/h (0 Bft) N 0 0 min 0,000 mm 5 W/m -4,4 C -3,3 C 0,0 km/h (0 Bft) 97 %
12.01.2022 08:20 -3,3 C -3,3 C -3,3 C 92 % 1037,6 hPa 0,0 l/m 0,0 km/h (0 Bft) O-NO 67 0 min 0,000 mm 7 W/m -4,4 C -3,3 C 1,6 km/h (1 Bft) 97 %
12.01.2022 08:30 -3,3 C -3,3 C -3,3 C 92 % 1037,8 hPa 0,0 l/m 0,0 km/h (0 Bft) N 0 0 min 0,000 mm 19 W/m -4,4 C -3,3 C 0,0 km/h (0 Bft) 97 %
12.01.2022 08:40 -3,2 C -3,3 C -3,2 C 92 % 1037,8 hPa 0,0 l/m 0,0 km/h (0 Bft) N 0 0 min 0,000 mm 21 W/m -4,3 C -3,2 C 0,0 km/h (0 Bft) 97 %
12.01.2022 08:50 -3,1 C -3,2 C -3,1 C 93 % 1037,8 hPa 0,0 l/m 0,0 km/h (0 Bft) N 0 0 min 0,000 mm 21 W/m -4,1 C -3,1 C 0,0 km/h (0 Bft) 98 %
12.01.2022 09:00 -2,9 C -3,1 C -2,9 C 93 % 1038,0 hPa 0,0 l/m 0,0 km/h (0 Bft) N 0 0 min 0,000 mm 35 W/m -3,9 C -2,9 C 0,0 km/h (0 Bft) 97 %
12.01.2022 09:10 -2,8 C -2,9 C -2,8 C 92 % 1038,0 hPa 0,0 l/m 0,0 km/h (0 Bft) N 0 0 min 0,000 mm 37 W/m -3,9 C -2,8 C 0,0 km/h (0 Bft) 97 %
12.01.2022 09:20 -2,6 C -2,8 C -2,6 C 93 % 1038,0 hPa 0,0 l/m 0,0 km/h (0 Bft) N 0 0 min 0,000 mm 72 W/m -3,6 C -2,6 C 0,0 km/h (0 Bft) 98 %
12.01.2022 09:30 -2,2 C -2,6 C -2,2 C 92 % 1038,2 hPa 0,0 l/m 0,0 km/h (0 Bft) O 90 0 min 0,000 mm 72 W/m -3,3 C -2,2 C 4,8 km/h (1 Bft) 97 %
12.01.2022 09:40 -1,9 C -2,2 C -1,9 C 93 % 1038,3 hPa 0,0 l/m 0,0 km/h (0 Bft) O 90 0 min 0,000 mm 54 W/m -2,9 C -1,9 C 4,8 km/h (1 Bft) 98 %
12.01.2022 09:50 -1,8 C -1,9 C -1,8 C 92 % 1038,4 hPa 0,0 l/m 0,0 km/h (0 Bft) N 0 0 min 0,000 mm 121 W/m -2,9 C -1,8 C 0,0 km/h (0 Bft) 98 %
12.01.2022 10:00 -1,4 C -1,8 C -1,4 C 93 % 1038,7 hPa 0,0 l/m 0,0 km/h (0 Bft) N 0 10 min 0,025 mm 174 W/m -2,4 C -1,4 C 0,0 km/h (0 Bft) 97 %
12.01.2022 10:10 -0,9 C -1,4 C -0,9 C 92 % 1039,0 hPa 0,0 l/m 0,0 km/h (0 Bft) N 0 10 min 0,000 mm 223 W/m -2,0 C -0,9 C 0,0 km/h (0 Bft) 88 %
12.01.2022 10:20 -0,4 C -0,9 C -0,4 C 92 % 1038,9 hPa 0,0 l/m 0,0 km/h (0 Bft) N 0 10 min 0,000 mm 264 W/m -1,5 C -0,4 C 0,0 km/h (0 Bft) 97 %
12.01.2022 10:30 -0,1 C -0,4 C -0,1 C 90 % 1039,1 hPa 0,0 l/m 0,0 km/h (0 Bft) N 0 10 min 0,000 mm 258 W/m -1,5 C -0,1 C 0,0 km/h (0 Bft) 98 %
12.01.2022 10:40 0,3 C -0,1 C 0,3 C 88 % 1039,2 hPa 0,0 l/m 0,0 km/h (0 Bft) N 0 10 min 0,000 mm 239 W/m -1,4 C 0,3 C 0,0 km/h (0 Bft) 97 %
12.01.2022 10:50 0,6 C 0,3 C 0,6 C 86 % 1039,4 hPa 0,0 l/m 0,0 km/h (0 Bft) N 0 10 min 0,000 mm 200 W/m -1,5 C 0,6 C 0,0 km/h (0 Bft) 98 %
12.01.2022 11:00 0,8 C 0,6 C 0,8 C 85 % 1039,3 hPa 0,0 l/m 0,0 km/h (0 Bft) N 0 10 min 0,076 mm 250 W/m -1,4 C 0,8 C 0,0 km/h (0 Bft) 98 %
12.01.2022 11:10 1,1 C 0,8 C 1,1 C 83 % 1039,4 hPa 0,0 l/m 0,0 km/h (0 Bft) N 0 10 min 0,000 mm 278 W/m -1,5 C 1,1 C 0,0 km/h (0 Bft) 97 %
12.01.2022 11:20 1,4 C 1,1 C 1,4 C 81 % 1039,3 hPa 0,0 l/m 1,6 km/h (1 Bft) S-SO 157 10 min 0,000 mm 279 W/m -1,5 C 1,4 C 6,4 km/h (2 Bft) 98 %
12.01.2022 11:30 1,4 C 1,4 C 1,5 C 80 % 1039,3 hPa 0,0 l/m 0,0 km/h (0 Bft) S-SO 157 10 min 0,000 mm 267 W/m -1,7 C 1,4 C 4,8 km/h (1 Bft) 97 %
12.01.2022 11:40 1,4 C 1,3 C 1,4 C 81 % 1039,3 hPa 0,0 l/m 0,0 km/h (0 Bft) S-SO 157 10 min 0,000 mm 301 W/m -1,5 C 1,4 C 6,4 km/h (2 Bft) 98 %
12.01.2022 11:50 1,4 C 1,4 C 1,4 C 80 % 1039,2 hPa 0,0 l/m 1,6 km/h (1 Bft) S-SW 202 10 min 0,000 mm 287 W/m -1,7 C 1,4 C 8,0 km/h (2 Bft) 97 %
12.01.2022 12:00 1,3 C 1,3 C 1,4 C 80 % 1039,2 hPa 0,0 l/m 3,2 km/h (1 Bft) S 180 10 min 0,076 mm 260 W/m -1,8 C 1,3 C 14,5 km/h (3 Bft) 98 %
12.01.2022 12:10 1,1 C 1,1 C 1,3 C 80 % 1039,0 hPa 0,0 l/m 1,6 km/h (1 Bft) S-SO 157 10 min 0,000 mm 295 W/m -2,0 C 1,1 C 9,7 km/h (2 Bft) 97 %
12.01.2022 12:20 1,1 C 1,0 C 1,1 C 81 % 1038,8 hPa 0,0 l/m 3,2 km/h (1 Bft) SO 135 10 min 0,000 mm 346 W/m -1,8 C 1,1 C 9,7 km/h (2 Bft) 89 %
12.01.2022 12:30 1,3 C 1,1 C 1,3 C 81 % 1038,6 hPa 0,0 l/m 1,6 km/h (1 Bft) S-SW 202 10 min 0,000 mm 301 W/m -1,6 C 1,3 C 11,3 km/h (2 Bft) 97 %
12.01.2022 12:40 1,4 C 1,3 C 1,4 C 80 % 1038,4 hPa 0,0 l/m 1,6 km/h (1 Bft) S-SW 202 10 min 0,000 mm 290 W/m -1,7 C 1,4 C 8,0 km/h (2 Bft) 98 %
12.01.2022 12:50 1,6 C 1,4 C 1,6 C 80 % 1038,5 hPa 0,0 l/m 0,0 km/h (0 Bft) S-SW 202 10 min 0,000 mm 285 W/m -1,5 C 1,6 C 8,0 km/h (2 Bft) 100 %
12.01.2022 13:00 1,8 C 1,4 C 1,8 C 80 % 1038,4 hPa 0,0 l/m 0,0 km/h (0 Bft) S-SW 211 0 min 0,077 mm 91 W/m -1,3 C 1,8 C 0,0 km/h (0 Bft) 98 %
12.01.2022 13:10 2,0 C 1,8 C 2,0 C 78 % 1038,4 hPa 0,0 l/m 0,8 km/h (0 Bft) SW 219 0 min 0,000 mm 142 W/m -1,4 C 2,0 C 4,8 km/h (1 Bft) 98 %
12.01.2022 13:20 2,1 C 2,0 C 2,2 C 78 % 1038,3 hPa 0,0 l/m 0,0 km/h (0 Bft) SW 223 10 min 0,000 mm 225 W/m -1,3 C 2,1 C 1,6 km/h (1 Bft) 97 %
12.01.2022 13:30 2,2 C 2,1 C 2,2 C 78 % 1038,4 hPa 0,0 l/m 0,0 km/h (0 Bft) SW 228 0 min 0,000 mm 144 W/m -1,2 C 2,2 C 0,0 km/h (0 Bft) 96 %
12.01.2022 13:40 2,1 C 2,0 C 2,2 C 78 % 1038,4 hPa 0,0 l/m 0,0 km/h (0 Bft) SW 228 10 min 0,000 mm 211 W/m -1,3 C 2,1 C 0,0 km/h (0 Bft) 91 %
12.01.2022 13:50 2,3 C 2,1 C 2,3 C 77 % 1038,7 hPa 0,0 l/m 0,0 km/h (0 Bft) SW 235 0 min 0,000 mm 88 W/m -1,3 C 2,3 C 0,0 km/h (0 Bft) 97 %
12.01.2022 14:00 2,1 C 2,1 C 2,3 C 78 % 1038,4 hPa 0,0 l/m 0,1 km/h (0 Bft) W-SW 251 10 min 0,051 mm 172 W/m -1,3 C 2,1 C 4,8 km/h (1 Bft) 99 %
12.01.2022 14:10 2,1 C 2,0 C 2,1 C 79 % 1038,5 hPa 0,0 l/m 0,0 km/h (0 Bft) W-SW 251 10 min 0,000 mm 220 W/m -1,2 C 2,1 C 0,0 km/h (0 Bft) 100 %
12.01.2022 14:20 2,4 C 2,1 C 2,4 C 77 % 1038,4 hPa 0,0 l/m 0,0 km/h (0 Bft) W-SW 248 10 min 0,000 mm 153 W/m -1,2 C 2,4 C 0,0 km/h (0 Bft) 100 %
12.01.2022 14:30 2,4 C 2,4 C 2,4 C 77 % 1038,4 hPa 0,0 l/m 0,0 km/h (0 Bft) W-SW 248 10 min 0,000 mm 183 W/m -1,2 C 2,4 C 0,0 km/h (0 Bft) 100 %
12.01.2022 14:40 2,6 C 2,4 C 2,6 C 76 % 1038,6 hPa 0,0 l/m 0,0 km/h (0 Bft) W-SW 248 10 min 0,000 mm 158 W/m -1,2 C 2,6 C 0,0 km/h (0 Bft) 100 %
12.01.2022 14:50 2,7 C 2,6 C 2,7 C 77 % 1038,6 hPa 0,0 l/m 0,0 km/h (0 Bft) W-SW 248 10 min 0,000 mm 158 W/m -0,9 C 2,7 C 0,0 km/h (0 Bft) 99 %
12.01.2022 15:00 2,7 C 2,7 C 2,8 C 77 % 1038,4 hPa 0,0 l/m 0,0 km/h (0 Bft) W-SW 248 0 min 0,051 mm 72 W/m -0,9 C 2,7 C 0,0 km/h (0 Bft) 100 %
12.01.2022 15:10 2,6 C 2,6 C 2,7 C 77 % 1038,3 hPa 0,0 l/m 0,0 km/h (0 Bft) W-SW 248 0 min 0,000 mm 97 W/m -1,0 C 2,6 C 0,0 km/h (0 Bft) 100 %
12.01.2022 15:20 2,6 C 2,6 C 2,7 C 76 % 1038,4 hPa 0,0 l/m 0,0 km/h (0 Bft) W-SW 248 0 min 0,000 mm 42 W/m -1,2 C 2,6 C 0,0 km/h (0 Bft) 100 %
12.01.2022 15:30 2,3 C 2,3 C 2,6 C 78 % 1038,4 hPa 0,0 l/m 0,0 km/h (0 Bft) W-SW 248 0 min 0,000 mm 30 W/m -1,1 C 2,3 C 0,0 km/h (0 Bft) 100 %
12.01.2022 15:40 2,3 C 2,3 C 2,3 C 78 % 1038,5 hPa 0,0 l/m 0,0 km/h (0 Bft) W-SW 248 0 min 0,000 mm 65 W/m -1,1 C 2,3 C 0,0 km/h (0 Bft) 100 %
12.01.2022 15:50 2,6 C 2,3 C 2,6 C 76 % 1038,5 hPa 0,0 l/m 0,0 km/h (0 Bft) W-SW 248 0 min 0,000 mm 56 W/m -1,2 C 2,6 C 0,0 km/h (0 Bft) 100 %
12.01.2022 16:00 3,1 C 2,6 C 3,1 C 75 % 1038,6 hPa 0,0 l/m 0,0 km/h (0 Bft) W-SW 248 0 min 0,025 mm 18 W/m -0,9 C 3,1 C 0,0 km/h (0 Bft) 100 %
12.01.2022 16:10 2,9 C 2,9 C 3,1 C 75 % 1038,5 hPa 0,0 l/m 0,0 km/h (0 Bft) W-SW 248 0 min 0,000 mm 14 W/m -1,1 C 2,9 C 0,0 km/h (0 Bft) 99 %
12.01.2022 16:20 2,2 C 2,2 C 2,9 C 76 % 1038,6 hPa 0,0 l/m 0,0 km/h (0 Bft) W-SW 248 0 min 0,000 mm 12 W/m -1,6 C 2,2 C 0,0 km/h (0 Bft) 97 %
12.01.2022 16:30 1,6 C 1,6 C 2,2 C 79 % 1038,7 hPa 0,0 l/m 0,0 km/h (0 Bft) W-SW 248 0 min 0,000 mm 9 W/m -1,6 C 1,6 C 0,0 km/h (0 Bft) 97 %
12.01.2022 16:40 1,1 C 1,1 C 1,6 C 81 % 1038,7 hPa 0,0 l/m 0,0 km/h (0 Bft) W-SW 248 0 min 0,000 mm 7 W/m -1,8 C 1,1 C 0,0 km/h (0 Bft) 97 %
12.01.2022 16:50 0,5 C 0,5 C 1,1 C 82 % 1038,5 hPa 0,0 l/m 0,0 km/h (0 Bft) W-SW 244 0 min 0,000 mm 0 W/m -2,2 C 0,5 C 1,6 km/h (1 Bft) 97 %
12.01.2022 17:00 0,3 C 0,3 C 0,5 C 84 % 1038,4 hPa 0,0 l/m 0,0 km/h (0 Bft) W-SW 243 0 min 0,000 mm 0 W/m -2,1 C 0,3 C 0,0 km/h (0 Bft) 97 %
12.01.2022 17:10 0,2 C 0,2 C 0,3 C 84 % 1038,7 hPa 0,0 l/m 0,0 km/h (0 Bft) W-SW 243 0 min 0,000 mm 0 W/m -2,2 C 0,2 C 0,0 km/h (0 Bft) 97 %
12.01.2022 17:20 0,1 C 0,1 C 0,2 C 84 % 1038,6 hPa 0,0 l/m 0,0 km/h (0 Bft) W-SW 243 0 min 0,000 mm 0 W/m -2,3 C 0,1 C 0,0 km/h (0 Bft) 97 %
12.01.2022 17:30 -0,1 C -0,1 C 0,1 C 85 % 1038,8 hPa 0,0 l/m 0,0 km/h (0 Bft) W-SW 243 0 min 0,000 mm 0 W/m -2,3 C -0,1 C 0,0 km/h (0 Bft) 98 %
12.01.2022 17:40 -0,3 C -0,3 C -0,1 C 85 % 1038,9 hPa 0,0 l/m 0,0 km/h (0 Bft) W-SW 243 0 min 0,000 mm 0 W/m -2,5 C -0,3 C 0,0 km/h (0 Bft) 97 %
12.01.2022 17:50 -0,3 C -0,3 C -0,3 C 85 % 1038,9 hPa 0,0 l/m 0,0 km/h (0 Bft) W-SW 243 0 min 0,000 mm 0 W/m -2,5 C -0,3 C 0,0 km/h (0 Bft) 98 %
12.01.2022 18:00 -0,6 C -0,6 C -0,3 C 86 % 1038,9 hPa 0,0 l/m 0,0 km/h (0 Bft) W-SW 243 0 min 0,000 mm 0 W/m -2,6 C -0,6 C 0,0 km/h (0 Bft) 97 %
12.01.2022 18:10 -0,7 C -0,8 C -0,6 C 87 % 1039,0 hPa 0,0 l/m 0,0 km/h (0 Bft) W-SW 243 0 min 0,000 mm 0 W/m -2,6 C -0,7 C 0,0 km/h (0 Bft) 90 %
12.01.2022 18:20 -0,9 C -0,9 C -0,7 C 87 % 1039,2 hPa 0,0 l/m 0,0 km/h (0 Bft) W-SW 243 0 min 0,000 mm 0 W/m -2,8 C -0,9 C 0,0 km/h (0 Bft) 97 %
12.01.2022 18:30 -1,2 C -1,2 C -0,9 C 87 % 1039,2 hPa 0,0 l/m 0,0 km/h (0 Bft) W-SW 243 0 min 0,000 mm 0 W/m -3,1 C -1,2 C 0,0 km/h (0 Bft) 97 %
12.01.2022 18:40 -1,3 C -1,3 C -1,2 C 88 % 1039,4 hPa 0,0 l/m 0,0 km/h (0 Bft) W-SW 243 0 min 0,000 mm 0 W/m -3,0 C -1,3 C 0,0 km/h (0 Bft) 98 %
12.01.2022 18:50 -1,4 C -1,4 C -1,3 C 89 % 1039,6 hPa 0,0 l/m 0,0 km/h (0 Bft) W-SW 243 0 min 0,000 mm 0 W/m -3,0 C -1,4 C 0,0 km/h (0 Bft) 97 %
12.01.2022 19:00 -1,6 C -1,6 C -1,4 C 89 % 1039,6 hPa 0,0 l/m 0,0 km/h (0 Bft) W-SW 243 0 min 0,000 mm 0 W/m -3,2 C -1,6 C 0,0 km/h (0 Bft) 97 %
12.01.2022 19:10 -1,6 C -1,6 C -1,6 C 89 % 1039,6 hPa 0,0 l/m 0,0 km/h (0 Bft) W-SW 243 0 min 0,000 mm 0 W/m -3,2 C -1,6 C 0,0 km/h (0 Bft) 97 %
12.01.2022 19:20 -1,7 C -1,7 C -1,6 C 89 % 1039,8 hPa 0,0 l/m 0,0 km/h (0 Bft) W-SW 243 0 min 0,000 mm 0 W/m -3,3 C -1,7 C 0,0 km/h (0 Bft) 97 %
12.01.2022 19:30 -1,7 C -1,7 C -1,7 C 90 % 1039,8 hPa 0,0 l/m 0,0 km/h (0 Bft) W-SW 243 0 min 0,000 mm 0 W/m -3,1 C -1,7 C 0,0 km/h (0 Bft) 98 %
12.01.2022 19:40 -1,7 C -1,7 C -1,7 C 90 % 1039,7 hPa 0,0 l/m 0,0 km/h (0 Bft) W-SW 243 0 min 0,000 mm 0 W/m -3,1 C -1,7 C 0,0 km/h (0 Bft) 97 %
12.01.2022 19:50 -1,7 C -1,8 C -1,7 C 91 % 1039,7 hPa 0,0 l/m 0,0 km/h (0 Bft) W-SW 243 0 min 0,000 mm 0 W/m -3,0 C -1,7 C 0,0 km/h (0 Bft) 98 %
12.01.2022 20:00 -1,7 C -1,7 C -1,7 C 91 % 1039,6 hPa 0,0 l/m 0,0 km/h (0 Bft) W-SW 243 0 min 0,000 mm 0 W/m -3,0 C -1,7 C 0,0 km/h (0 Bft) 97 %
12.01.2022 20:10 -1,6 C -1,7 C -1,6 C 91 % 1039,7 hPa 0,0 l/m 0,0 km/h (0 Bft) W-SW 243 0 min 0,000 mm 0 W/m -2,9 C -1,6 C 0,0 km/h (0 Bft) 97 %
12.01.2022 20:20 -1,6 C -1,6 C -1,6 C 91 % 1039,5 hPa 0,0 l/m 0,0 km/h (0 Bft) W-SW 243 0 min 0,000 mm 0 W/m -2,9 C -1,6 C 0,0 km/h (0 Bft) 98 %
12.01.2022 20:30 -1,5 C -1,6 C -1,5 C 91 % 1039,7 hPa 0,0 l/m 0,0 km/h (0 Bft) W-SW 243 0 min 0,000 mm 0 W/m -2,8 C -1,5 C 0,0 km/h (0 Bft) 97 %
12.01.2022 20:40 -1,4 C -1,5 C -1,4 C 91 % 1039,9 hPa 0,0 l/m 0,0 km/h (0 Bft) W-SW 243 0 min 0,000 mm 0 W/m -2,7 C -1,4 C 0,0 km/h (0 Bft) 98 %
12.01.2022 20:50 -1,4 C -1,4 C -1,4 C 91 % 1040,3 hPa 0,0 l/m 0,0 km/h (0 Bft) W-SW 243 0 min 0,000 mm 0 W/m -2,7 C -1,4 C 0,0 km/h (0 Bft) 97 %
12.01.2022 21:00 -1,3 C -1,4 C -1,3 C 92 % 1040,3 hPa 0,0 l/m 0,0 km/h (0 Bft) W-SW 243 0 min 0,000 mm 0 W/m -2,4 C -1,3 C 0,0 km/h (0 Bft) 98 %
12.01.2022 21:10 -1,3 C -1,4 C -1,3 C 92 % 1040,5 hPa 0,0 l/m 0,0 km/h (0 Bft) N 0 0 min 0,000 mm 0 W/m -2,4 C -1,3 C 0,0 km/h (0 Bft) 100 %
12.01.2022 21:20 -1,2 C -1,3 C -1,2 C 92 % 1040,4 hPa 0,0 l/m 0,0 km/h (0 Bft) N 0 0 min 0,000 mm 0 W/m -2,3 C -1,2 C 0,0 km/h (0 Bft) 100 %
12.01.2022 21:30 -1,2 C -1,2 C -1,2 C 92 % 1040,4 hPa 0,0 l/m 0,0 km/h (0 Bft) N 0 0 min 0,000 mm 0 W/m -2,3 C -1,2 C 0,0 km/h (0 Bft) 100 %
12.01.2022 21:40 -1,1 C -1,2 C -1,1 C 92 % 1040,4 hPa 0,0 l/m 0,0 km/h (0 Bft) N 0 0 min 0,000 mm 0 W/m -2,2 C -1,1 C 0,0 km/h (0 Bft) 100 %
12.01.2022 21:50 -1,1 C -1,2 C -1,1 C 92 % 1040,5 hPa 0,0 l/m 0,0 km/h (0 Bft) N 0 0 min 0,000 mm 0 W/m -2,2 C -1,1 C 0,0 km/h (0 Bft) 99 %
12.01.2022 22:00 -1,0 C -1,1 C -1,0 C 92 % 1040,6 hPa 0,0 l/m 0,0 km/h (0 Bft) N 0 0 min 0,000 mm 0 W/m -2,1 C -1,0 C 0,0 km/h (0 Bft) 93 %
12.01.2022 22:10 -1,0 C -1,1 C -1,0 C 92 % 1040,5 hPa 0,0 l/m 0,0 km/h (0 Bft) N 0 0 min 0,000 mm 0 W/m -2,1 C -1,0 C 0,0 km/h (0 Bft) 100 %
12.01.2022 22:20 -0,9 C -1,0 C -0,9 C 92 % 1040,5 hPa 0,0 l/m 0,0 km/h (0 Bft) N 0 0 min 0,000 mm 0 W/m -2,0 C -0,9 C 0,0 km/h (0 Bft) 100 %
12.01.2022 22:30 -0,8 C -0,9 C -0,8 C 92 % 1040,6 hPa 0,0 l/m 0,0 km/h (0 Bft) N 0 0 min 0,000 mm 0 W/m -1,9 C -0,8 C 0,0 km/h (0 Bft) 100 %
12.01.2022 22:40 -0,8 C -0,8 C -0,7 C 92 % 1040,5 hPa 0,0 l/m 0,0 km/h (0 Bft) N 0 0 min 0,000 mm 0 W/m -1,9 C -0,8 C 0,0 km/h (0 Bft) 100 %
12.01.2022 22:50 -0,7 C -0,8 C -0,7 C 92 % 1040,6 hPa 0,0 l/m 0,0 km/h (0 Bft) N 0 0 min 0,000 mm 0 W/m -1,8 C -0,7 C 0,0 km/h (0 Bft) 100 %
12.01.2022 23:00 -0,7 C -0,7 C -0,7 C 92 % 1040,5 hPa 0,0 l/m 0,0 km/h (0 Bft) N 0 0 min 0,000 mm 0 W/m -1,8 C -0,7 C 0,0 km/h (0 Bft) 100 %
12.01.2022 23:10 -0,7 C -0,7 C -0,7 C 92 % 1040,5 hPa 0,0 l/m 0,0 km/h (0 Bft) N 0 0 min 0,000 mm 0 W/m -1,8 C -0,7 C 0,0 km/h (0 Bft) 100 %
12.01.2022 23:20 -0,7 C -0,7 C -0,6 C 92 % 1040,5 hPa 0,0 l/m 0,0 km/h (0 Bft) N 0 0 min 0,000 mm 0 W/m -1,8 C -0,7 C 0,0 km/h (0 Bft) 100 %
12.01.2022 23:30 -0,6 C -0,7 C -0,6 C 92 % 1040,4 hPa 0,0 l/m 0,0 km/h (0 Bft) N 0 0 min 0,000 mm 0 W/m -1,7 C -0,6 C 0,0 km/h (0 Bft) 100 %
12.01.2022 23:40 -0,6 C -0,6 C -0,6 C 92 % 1040,4 hPa 0,0 l/m 0,0 km/h (0 Bft) N 0 0 min 0,000 mm 0 W/m -1,7 C -0,6 C 0,0 km/h (0 Bft) 100 %
12.01.2022 23:50 -0,6 C -0,6 C -0,6 C 92 % 1040,4 hPa 0,0 l/m 0,0 km/h (0 Bft) N 0 0 min 0,000 mm 0 W/m -1,7 C -0,6 C 0,0 km/h (0 Bft) 100 %
_ Min-Zeit 07:40 07:40 07:50 16:00 00:00 - 00:00 - - - - - 07:00 07:40 00:00 07:50
Minimum _ -3,3 C -3,3 C -3,3 C 75 % 1035,4 hPa - 0,0 km/h (0 Bft) - - - - - -4,5 C -3,3 C 0,0 km/h (0 Bft) 88 %
_ Max-Zeit 16:00 16:10 16:00 08:50 22:00 00:00 12:00 - - 10:00 13:00 12:20 16:00 16:00 12:00 00:00
Maximum _ 3,1 C 2,9 C 3,1 C 93 % 1040,6 hPa 0,0 l/m 3,2 km/h
S (1 Bft)
- - 10 min 0,077 mm 346 W/m -0,9 C 3,1 C 14,5 km/h
S (3 Bft)
100 %
Durchschnitt _ -0,5 C -0,5 C -0,4 C 86 % 1038,1 hPa #0,0 l/m 0,1 km/h (0 Bft) S-SW - #4:20 h #0,381 mm 147 W/m -2,5 C -0,5 C 0,8 km/h (0 Bft) 98 %
PRIVATE WETTERSTATION BILLIGHEIM-ALLFELD - www.neckar-odenwald-wetter.de - Holger Sonntag